createdAt,value
2022-10-09T00:01:34.462Z,9.11
2022-10-09T00:04:02.358Z,9.08
2022-10-09T00:06:33.689Z,9.01
2022-10-09T00:09:02.864Z,9.05
2022-10-09T00:11:31.806Z,9.10
2022-10-09T00:14:00.238Z,9.08
2022-10-09T00:16:28.674Z,9.02
2022-10-09T00:18:56.528Z,8.97
2022-10-09T00:21:26.509Z,9.00
2022-10-09T00:24:00.470Z,9.05
2022-10-09T00:26:28.838Z,9.06
2022-10-09T00:28:57.618Z,9.16
2022-10-09T00:31:25.538Z,9.11
2022-10-09T00:33:53.475Z,9.17
2022-10-09T00:36:23.092Z,9.15
2022-10-09T00:38:51.238Z,9.18
2022-10-09T00:41:23.151Z,9.14
2022-10-09T00:43:52.681Z,9.16
2022-10-09T00:46:26.931Z,9.23
2022-10-09T00:49:00.498Z,9.21
2022-10-09T00:51:29.495Z,9.19
2022-10-09T00:53:57.872Z,9.21
2022-10-09T00:56:27.308Z,9.19
2022-10-09T00:58:57.980Z,9.23
2022-10-09T01:01:26.110Z,9.25
2022-10-09T01:03:54.022Z,9.17
2022-10-09T01:06:29.613Z,9.26
2022-10-09T01:09:02.047Z,9.24
2022-10-09T01:11:37.730Z,9.27
2022-10-09T01:14:17.384Z,9.26
2022-10-09T01:16:47.603Z,9.28
2022-10-09T01:19:24.262Z,9.18
2022-10-09T01:21:59.970Z,9.23
2022-10-09T01:24:31.018Z,9.11
2022-10-09T01:27:06.358Z,9.09
2022-10-09T01:29:37.502Z,9.08
2022-10-09T01:32:06.015Z,9.18
2022-10-09T01:34:34.496Z,8.97
2022-10-09T01:37:02.405Z,9.06
2022-10-09T01:39:31.381Z,9.03
2022-10-09T01:41:59.532Z,8.96
2022-10-09T01:44:30.673Z,8.92
2022-10-09T01:46:58.799Z,8.87
2022-10-09T01:49:44.142Z,8.85
2022-10-09T01:52:21.670Z,8.72
2022-10-09T01:55:05.716Z,8.73
2022-10-09T01:57:38.162Z,8.74
2022-10-09T02:00:10.448Z,8.75
2022-10-09T02:02:42.931Z,8.68
2022-10-09T02:05:11.801Z,8.66
2022-10-09T02:07:39.648Z,8.68
2022-10-09T02:10:09.832Z,8.79
2022-10-09T02:12:40.994Z,8.76
2022-10-09T02:15:11.687Z,8.82
2022-10-09T02:17:44.154Z,8.72
2022-10-09T02:20:15.913Z,8.74
2022-10-09T02:22:43.956Z,8.60
2022-10-09T02:25:11.866Z,8.56
2022-10-09T02:27:39.833Z,8.56
2022-10-09T02:30:10.266Z,8.57
2022-10-09T02:32:38.112Z,8.53
2022-10-09T02:35:06.534Z,8.51
2022-10-09T02:37:34.448Z,8.43
2022-10-09T02:40:03.994Z,8.39
2022-10-09T02:42:34.909Z,8.33
2022-10-09T02:45:02.919Z,8.33
2022-10-09T02:47:32.205Z,8.33
2022-10-09T02:50:00.007Z,8.33
2022-10-09T02:52:28.196Z,8.28
2022-10-09T02:54:56.051Z,8.22
2022-10-09T02:57:23.891Z,8.23
2022-10-09T02:59:51.739Z,8.24
2022-10-09T03:02:19.719Z,8.23
2022-10-09T03:04:49.001Z,8.31
2022-10-09T03:07:16.840Z,8.25
2022-10-09T03:09:44.660Z,8.26
2022-10-09T03:12:12.561Z,8.30
2022-10-09T03:14:40.387Z,8.29
2022-10-09T03:17:08.206Z,8.36
2022-10-09T03:19:36.034Z,8.32
2022-10-09T03:22:05.181Z,8.35
2022-10-09T03:24:32.961Z,8.34
2022-10-09T03:27:00.810Z,8.29
2022-10-09T03:29:28.670Z,8.25
2022-10-09T03:31:56.520Z,8.22
2022-10-09T03:34:24.404Z,8.23
2022-10-09T03:36:52.225Z,8.10
2022-10-09T03:39:21.403Z,8.04
2022-10-09T03:41:49.232Z,8.01
2022-10-09T03:44:17.031Z,8.02
2022-10-09T03:46:44.942Z,8.00
2022-10-09T03:49:12.965Z,7.99
2022-10-09T03:51:41.068Z,7.99
2022-10-09T03:54:09.121Z,8.00
2022-10-09T03:56:38.337Z,7.99
2022-10-09T03:59:07.539Z,8.09
2022-10-09T04:01:35.401Z,7.96
2022-10-09T04:04:03.360Z,8.01
2022-10-09T04:06:31.226Z,8.00
2022-10-09T04:08:59.014Z,7.99
2022-10-09T04:11:26.843Z,7.96
2022-10-09T04:13:56.010Z,7.97
2022-10-09T04:16:23.845Z,7.97
2022-10-09T04:18:51.676Z,7.95
2022-10-09T04:21:19.506Z,7.95
2022-10-09T04:23:47.303Z,7.97
2022-10-09T04:26:15.279Z,7.99
2022-10-09T04:28:43.568Z,8.01
2022-10-09T04:31:12.969Z,8.00
2022-10-09T04:33:40.864Z,8.09
2022-10-09T04:36:08.998Z,8.19
2022-10-09T04:38:36.814Z,8.19
2022-10-09T04:41:06.660Z,8.19
2022-10-09T04:43:35.598Z,8.23
2022-10-09T04:46:06.254Z,8.29
2022-10-09T04:48:39.730Z,8.33
2022-10-09T04:51:08.114Z,8.27
2022-10-09T04:53:36.899Z,8.35
2022-10-09T04:56:05.853Z,8.30
2022-10-09T04:58:35.286Z,8.32
2022-10-09T05:01:07.059Z,8.31
2022-10-09T05:03:34.918Z,8.24
2022-10-09T05:06:05.658Z,8.21
2022-10-09T05:08:33.914Z,8.22
2022-10-09T05:11:02.162Z,8.18
2022-10-09T05:13:31.357Z,8.18
2022-10-09T05:16:02.407Z,8.18
2022-10-09T05:18:30.367Z,8.14
2022-10-09T05:20:58.387Z,8.19
2022-10-09T05:23:28.557Z,8.12
2022-10-09T05:25:56.943Z,8.10
2022-10-09T05:28:24.826Z,8.08
2022-10-09T05:30:52.817Z,8.01
2022-10-09T05:33:20.759Z,7.99
2022-10-09T05:35:52.692Z,8.05
2022-10-09T05:38:21.624Z,8.07
2022-10-09T05:40:54.698Z,8.11
2022-10-09T05:43:24.586Z,8.08
2022-10-09T05:45:52.881Z,8.18
2022-10-09T05:48:21.368Z,8.19
2022-10-09T05:50:49.647Z,8.31
2022-10-09T05:53:17.497Z,8.34
2022-10-09T05:55:45.611Z,8.33
2022-10-09T05:58:14.881Z,8.31
2022-10-09T06:00:42.818Z,8.29
2022-10-09T06:03:10.615Z,8.19
2022-10-09T06:05:38.456Z,7.99
2022-10-09T06:08:06.282Z,7.89
2022-10-09T06:10:34.114Z,7.80
2022-10-09T06:13:01.965Z,7.65
2022-10-09T06:15:31.132Z,7.57
2022-10-09T06:17:58.973Z,7.59
2022-10-09T06:20:26.806Z,7.54
2022-10-09T06:22:54.660Z,7.46
2022-10-09T06:25:22.487Z,7.52
2022-10-09T06:27:50.407Z,7.52
2022-10-09T06:30:18.410Z,7.57
2022-10-09T06:32:47.895Z,7.61
2022-10-09T06:35:15.979Z,7.67
2022-10-09T06:37:43.799Z,7.63
2022-10-09T06:40:11.753Z,7.67
2022-10-09T06:42:39.516Z,7.72
2022-10-09T06:45:17.768Z,7.76
2022-10-09T06:47:47.033Z,7.86
2022-10-09T06:50:16.097Z,7.87
2022-10-09T06:52:44.099Z,8.04
2022-10-09T06:55:12.143Z,8.09
2022-10-09T06:57:39.974Z,8.19
2022-10-09T07:00:08.655Z,8.23
2022-10-09T07:02:41.806Z,8.34
2022-10-09T07:05:13.061Z,8.47
2022-10-09T07:07:41.504Z,8.65
2022-10-09T07:10:10.071Z,8.74
2022-10-09T07:12:38.194Z,8.85
2022-10-09T07:15:07.726Z,8.88
2022-10-09T07:17:35.582Z,9.09
2022-10-09T07:20:03.445Z,9.07
2022-10-09T07:22:33.534Z,9.23
2022-10-09T07:25:01.644Z,9.45
2022-10-09T07:27:29.535Z,9.53
2022-10-09T07:29:57.359Z,9.60
2022-10-09T07:32:25.166Z,9.60
2022-10-09T07:34:52.970Z,9.83
2022-10-09T07:37:20.789Z,9.95
2022-10-09T07:39:49.999Z,9.98
2022-10-09T07:42:17.880Z,10.09
2022-10-09T07:44:46.048Z,10.38
2022-10-09T07:47:14.372Z,10.34
2022-10-09T07:49:42.171Z,10.58
2022-10-09T07:52:10.222Z,10.70
2022-10-09T07:54:38.080Z,10.81
2022-10-09T07:57:07.282Z,11.02
2022-10-09T07:59:35.094Z,11.13
2022-10-09T08:02:03.043Z,11.21
2022-10-09T08:04:30.939Z,11.28
2022-10-09T08:06:59.890Z,11.33
2022-10-09T08:09:27.771Z,11.59
2022-10-09T08:11:55.627Z,11.73
2022-10-09T08:14:24.835Z,11.63
2022-10-09T08:16:52.623Z,11.60
2022-10-09T08:19:20.494Z,11.77
2022-10-09T08:21:48.359Z,11.87
2022-10-09T08:24:17.413Z,11.99
2022-10-09T08:26:45.368Z,12.33
2022-10-09T08:29:15.961Z,12.31
2022-10-09T08:31:46.288Z,12.48
2022-10-09T08:34:14.289Z,12.15
2022-10-09T08:36:42.123Z,12.51
2022-10-09T08:39:10.042Z,12.66
2022-10-09T08:41:45.652Z,12.52
2022-10-09T08:44:25.394Z,12.82
2022-10-09T08:47:00.056Z,13.04
2022-10-09T08:49:32.450Z,13.06
2022-10-09T08:52:11.330Z,13.17
2022-10-09T08:54:40.496Z,13.17
2022-10-09T08:57:12.539Z,13.22
2022-10-09T08:59:40.486Z,13.32
2022-10-09T09:02:22.667Z,13.32
2022-10-09T09:04:59.795Z,13.58
2022-10-09T09:07:32.146Z,13.44
2022-10-09T09:10:25.713Z,13.08
2022-10-09T09:13:25.084Z,13.31
2022-10-09T09:16:09.592Z,13.60
2022-10-09T09:19:00.209Z,13.59
2022-10-09T09:21:38.479Z,13.71
2022-10-09T09:24:14.135Z,14.01
2022-10-09T09:26:43.394Z,13.96
2022-10-09T09:29:13.868Z,13.84
2022-10-09T09:31:42.605Z,13.63
2022-10-09T09:34:14.070Z,14.15
2022-10-09T09:36:45.915Z,13.93
2022-10-09T09:42:12.225Z,14.20
2022-10-09T09:44:42.933Z,14.17
2022-10-09T09:47:13.498Z,14.13
2022-10-09T09:49:54.521Z,14.17
2022-10-09T09:52:22.617Z,14.05
2022-10-09T09:54:50.719Z,14.16
2022-10-09T09:57:36.901Z,14.44
2022-10-09T10:00:11.719Z,15.00
2022-10-09T10:02:39.592Z,14.88
2022-10-09T10:05:18.250Z,15.49
2022-10-09T10:07:49.902Z,15.48
2022-10-09T10:10:24.750Z,15.50
2022-10-09T10:12:55.913Z,15.97
2022-10-09T10:15:26.251Z,15.90
2022-10-09T10:18:00.099Z,15.98
2022-10-09T10:20:32.055Z,15.94
2022-10-09T10:23:00.773Z,15.88
2022-10-09T10:25:31.442Z,16.34
2022-10-09T10:28:02.998Z,16.17
2022-10-09T10:30:31.397Z,16.27
2022-10-09T10:33:03.689Z,16.14
2022-10-09T10:35:35.167Z,16.07
2022-10-09T10:38:06.404Z,16.44
2022-10-09T10:40:37.604Z,17.28
2022-10-09T10:43:16.377Z,17.07
2022-10-09T10:45:53.741Z,17.39
2022-10-09T10:48:25.391Z,17.60
2022-10-09T10:51:03.923Z,18.31
2022-10-09T10:53:42.693Z,18.01
2022-10-09T10:56:17.032Z,17.42
2022-10-09T10:58:50.567Z,17.91
2022-10-09T11:01:26.890Z,18.84
2022-10-09T11:04:24.349Z,17.74
2022-10-09T11:06:58.492Z,16.97
2022-10-09T11:09:29.449Z,17.21
2022-10-09T11:12:00.857Z,17.49
2022-10-09T11:14:37.286Z,17.53
2022-10-09T11:17:13.178Z,17.12
2022-10-09T11:19:54.247Z,17.23
2022-10-09T11:22:32.760Z,16.39
2022-10-09T11:25:19.234Z,16.45
2022-10-09T11:27:51.437Z,17.40
2022-10-09T11:30:20.069Z,18.03
2022-10-09T11:32:55.640Z,19.46
2022-10-09T11:35:25.121Z,19.55
2022-10-09T11:38:01.092Z,19.47
2022-10-09T11:40:33.393Z,18.59
2022-10-09T11:43:08.995Z,17.27
2022-10-09T11:45:42.486Z,16.55
2022-10-09T11:48:14.240Z,16.49
2022-10-09T11:50:50.104Z,16.01
2022-10-09T11:53:21.315Z,16.11
2022-10-09T11:55:49.247Z,16.05
2022-10-09T11:58:23.900Z,16.02
2022-10-09T12:00:54.841Z,15.78
2022-10-09T12:03:33.291Z,15.76
2022-10-09T12:06:07.287Z,15.57
2022-10-09T12:08:37.051Z,15.55
2022-10-09T12:11:12.158Z,15.40
2022-10-09T12:13:47.075Z,15.30
2022-10-09T12:16:36.891Z,15.27
2022-10-09T12:19:11.572Z,15.40
2022-10-09T12:21:47.242Z,15.63
2022-10-09T12:24:19.054Z,15.76
2022-10-09T12:26:48.294Z,15.96
2022-10-09T12:29:24.661Z,16.97
2022-10-09T12:31:54.678Z,17.06
2022-10-09T12:34:25.196Z,17.57
2022-10-09T12:36:53.169Z,18.86
2022-10-09T12:39:24.603Z,20.66
2022-10-09T12:41:55.442Z,20.57
2022-10-09T12:44:31.637Z,19.86
2022-10-09T12:47:02.793Z,19.49
2022-10-09T12:49:30.754Z,19.15
2022-10-09T12:52:00.289Z,19.52
2022-10-09T12:54:31.735Z,20.01
2022-10-09T12:57:00.386Z,19.27
2022-10-09T12:59:28.793Z,18.69
2022-10-09T13:01:59.281Z,18.38
2022-10-09T13:04:29.984Z,18.74
2022-10-09T13:06:59.366Z,19.39
2022-10-09T13:09:34.201Z,19.95
2022-10-09T13:12:05.653Z,19.90
2022-10-09T13:14:36.372Z,19.96
2022-10-09T13:17:04.550Z,19.74
2022-10-09T13:19:33.549Z,19.73
2022-10-09T13:22:09.764Z,19.70
2022-10-09T13:24:39.026Z,19.47
2022-10-09T13:27:06.950Z,18.55
2022-10-09T13:29:34.789Z,18.75
2022-10-09T13:32:03.245Z,19.37
2022-10-09T13:34:31.231Z,20.38
2022-10-09T13:36:59.094Z,19.99
2022-10-09T13:39:27.275Z,20.30
2022-10-09T13:41:58.457Z,21.61
2022-10-09T13:44:26.680Z,22.72
2022-10-09T13:46:55.643Z,21.28
2022-10-09T13:49:23.546Z,19.90
2022-10-09T13:51:51.390Z,20.02
2022-10-09T13:54:19.228Z,20.46
2022-10-09T13:56:47.048Z,20.31
2022-10-09T13:59:16.220Z,20.15
2022-10-09T14:01:44.097Z,19.86
2022-10-09T14:04:11.962Z,20.11
2022-10-09T14:06:41.607Z,21.09
2022-10-09T14:09:10.451Z,20.94
2022-10-09T14:11:38.394Z,21.33
2022-10-09T14:14:06.259Z,21.38
2022-10-09T14:16:35.626Z,21.55
2022-10-09T14:19:05.349Z,21.03
2022-10-09T14:21:34.043Z,21.07
2022-10-09T14:24:03.524Z,21.60
2022-10-09T14:26:32.450Z,19.53
2022-10-09T14:29:02.079Z,19.99
2022-10-09T14:31:30.380Z,19.55
2022-10-09T14:34:00.631Z,20.01
2022-10-09T14:36:29.286Z,20.29
2022-10-09T14:38:57.179Z,20.40
2022-10-09T14:41:25.090Z,20.39
2022-10-09T14:43:56.829Z,19.54
2022-10-09T14:46:25.256Z,19.24
2022-10-09T14:48:55.295Z,19.38
2022-10-09T14:51:26.352Z,19.03
2022-10-09T14:53:57.121Z,18.78
2022-10-09T14:56:25.187Z,19.17
2022-10-09T14:58:53.107Z,19.30
2022-10-09T15:01:23.329Z,19.45
2022-10-09T15:03:51.423Z,19.18
2022-10-09T15:06:23.745Z,19.44
2022-10-09T15:08:55.802Z,19.13
2022-10-09T15:11:24.126Z,19.53
2022-10-09T15:13:52.005Z,20.02
2022-10-09T15:16:20.442Z,19.24
2022-10-09T15:18:49.681Z,19.80
2022-10-09T15:21:18.996Z,19.11
2022-10-09T15:23:47.153Z,18.86
2022-10-09T15:26:16.537Z,19.49
2022-10-09T15:28:44.893Z,19.02
2022-10-09T15:31:20.176Z,18.99
2022-10-09T15:33:48.065Z,19.40
2022-10-09T15:36:15.880Z,19.29
2022-10-09T15:38:43.752Z,19.14
2022-10-09T15:41:21.152Z,18.94
2022-10-09T15:43:49.362Z,18.90
2022-10-09T15:46:17.502Z,19.20
2022-10-09T15:48:45.747Z,19.57
2022-10-09T15:51:14.303Z,19.33
2022-10-09T15:53:43.407Z,19.10
2022-10-09T15:56:13.530Z,18.40
2022-10-09T15:58:43.017Z,17.51
2022-10-09T16:01:12.975Z,16.51
2022-10-09T16:03:41.218Z,16.37
2022-10-09T16:06:12.498Z,16.05
2022-10-09T16:08:40.991Z,15.61
2022-10-09T16:11:10.866Z,15.24
2022-10-09T16:13:41.083Z,15.10
2022-10-09T16:16:13.124Z,14.88
2022-10-09T16:18:41.002Z,14.58
2022-10-09T16:21:10.289Z,14.40
2022-10-09T16:23:38.216Z,14.26
2022-10-09T16:26:06.192Z,14.11
2022-10-09T16:28:34.653Z,13.95
2022-10-09T16:31:02.817Z,13.80
2022-10-09T16:33:32.043Z,13.67
2022-10-09T16:36:10.739Z,13.53
2022-10-09T16:38:38.739Z,13.44
2022-10-09T16:41:08.819Z,13.28
2022-10-09T16:43:37.352Z,13.09
2022-10-09T16:46:13.496Z,13.09
2022-10-09T16:48:42.779Z,13.02
2022-10-09T16:51:12.040Z,12.98
2022-10-09T16:53:40.135Z,12.77
2022-10-09T16:56:13.074Z,12.65
2022-10-09T16:58:40.957Z,12.51
2022-10-09T17:01:10.301Z,12.46
2022-10-09T17:03:40.273Z,12.32
2022-10-09T17:06:11.764Z,12.41
2022-10-09T17:08:39.815Z,12.33
2022-10-09T17:11:08.853Z,12.11
2022-10-09T17:13:36.943Z,12.02
2022-10-09T17:16:06.691Z,12.03
2022-10-09T17:18:35.238Z,11.95
2022-10-09T17:21:03.810Z,11.82
2022-10-09T17:23:33.166Z,11.75
2022-10-09T17:26:06.690Z,11.64
2022-10-09T17:28:35.392Z,11.55
2022-10-09T17:31:05.001Z,11.50
2022-10-09T17:33:32.912Z,11.47
2022-10-09T17:36:00.862Z,11.46
2022-10-09T17:38:28.715Z,11.32
2022-10-09T17:40:57.975Z,11.22
2022-10-09T17:43:25.951Z,11.09
2022-10-09T17:45:54.968Z,11.11
2022-10-09T17:48:22.847Z,11.00
2022-10-09T17:50:51.973Z,10.98
2022-10-09T17:53:20.076Z,10.96
2022-10-09T17:55:47.954Z,10.82
2022-10-09T17:58:17.870Z,10.82
2022-10-09T18:00:46.443Z,10.78
2022-10-09T18:03:14.767Z,10.75
2022-10-09T18:05:43.050Z,10.68
2022-10-09T18:08:10.899Z,10.64
2022-10-09T18:10:39.000Z,10.57
2022-10-09T18:13:07.886Z,10.51
2022-10-09T18:15:39.373Z,10.48
2022-10-09T18:18:07.921Z,10.37
2022-10-09T18:20:35.793Z,10.27
2022-10-09T18:23:03.727Z,10.26
2022-10-09T18:25:31.671Z,10.20
2022-10-09T18:27:59.610Z,10.12
2022-10-09T18:30:28.075Z,10.16
2022-10-09T18:32:57.305Z,10.09
2022-10-09T18:35:25.498Z,10.03
2022-10-09T18:37:53.743Z,10.01
2022-10-09T18:40:21.561Z,10.08
2022-10-09T18:42:49.632Z,10.11
2022-10-09T18:45:17.715Z,10.04
2022-10-09T18:47:45.662Z,9.98
2022-10-09T18:50:15.534Z,9.90
2022-10-09T18:52:44.545Z,9.99
2022-10-09T18:55:13.859Z,9.94
2022-10-09T18:57:42.298Z,9.86
2022-10-09T19:00:11.520Z,9.76
2022-10-09T19:05:12.135Z,9.68
2022-10-09T19:07:41.539Z,9.70
2022-10-09T19:10:10.181Z,9.76
2022-10-09T19:12:38.179Z,9.72
2022-10-09T19:15:11.695Z,9.62
2022-10-09T19:17:40.089Z,9.66
2022-10-09T19:20:09.012Z,9.66
2022-10-09T19:22:37.210Z,9.56
2022-10-09T19:25:07.719Z,9.54
2022-10-09T19:27:35.601Z,9.45
2022-10-09T19:30:04.251Z,9.44
2022-10-09T19:32:32.202Z,9.37
2022-10-09T19:34:59.972Z,9.31
2022-10-09T19:37:29.853Z,9.31
2022-10-09T19:39:58.167Z,9.28
2022-10-09T19:42:27.521Z,9.28
2022-10-09T19:44:55.346Z,9.29
2022-10-09T19:47:23.664Z,9.31
2022-10-09T19:49:51.510Z,9.28
2022-10-09T19:52:19.999Z,9.35
2022-10-09T19:54:47.791Z,9.33
2022-10-09T19:57:15.648Z,9.39
2022-10-09T19:59:45.078Z,9.33
2022-10-09T20:02:12.966Z,9.33
2022-10-09T20:04:40.810Z,9.39
2022-10-09T20:07:12.546Z,9.37
2022-10-09T20:09:40.995Z,9.36
2022-10-09T20:12:09.632Z,9.37
2022-10-09T20:14:37.462Z,9.41
2022-10-09T20:17:07.043Z,9.34
2022-10-09T20:19:34.891Z,9.43
2022-10-09T20:22:02.729Z,9.35
2022-10-09T20:24:30.583Z,9.28
2022-10-09T20:26:58.516Z,9.22
2022-10-09T20:29:27.218Z,9.19
2022-10-09T20:31:55.604Z,9.19
2022-10-09T20:34:26.854Z,9.09
2022-10-09T20:36:55.845Z,9.18
2022-10-09T20:39:23.815Z,9.14
2022-10-09T20:41:52.070Z,9.11
2022-10-09T20:44:19.872Z,9.21
2022-10-09T20:46:47.760Z,9.21
2022-10-09T20:49:15.916Z,9.13
2022-10-09T20:51:45.111Z,9.11
2022-10-09T20:54:17.793Z,9.01
2022-10-09T20:56:45.677Z,9.01
2022-10-09T20:59:13.746Z,8.95
2022-10-09T21:01:41.669Z,8.91
2022-10-09T21:04:11.083Z,8.82
2022-10-09T21:06:39.529Z,8.82
2022-10-09T21:09:09.384Z,8.83
2022-10-09T21:11:38.845Z,8.84
2022-10-09T21:14:06.678Z,8.88
2022-10-09T21:16:34.545Z,8.78
2022-10-09T21:19:04.571Z,8.83
2022-10-09T21:21:33.073Z,8.74
2022-10-09T21:24:01.781Z,8.76
2022-10-09T21:26:31.591Z,8.78
2022-10-09T21:29:00.238Z,8.82
2022-10-09T21:31:30.048Z,8.86
2022-10-09T21:33:58.203Z,8.84
2022-10-09T21:36:32.233Z,9.01
2022-10-09T21:39:00.077Z,8.79
2022-10-09T21:41:28.221Z,8.76
2022-10-09T21:43:57.536Z,8.79
2022-10-09T21:46:25.884Z,8.73
2022-10-09T21:48:53.886Z,8.59
2022-10-09T21:51:21.772Z,8.51
2022-10-09T21:53:50.372Z,8.55
2022-10-09T21:56:18.411Z,8.51
2022-10-09T21:58:49.033Z,8.60
2022-10-09T22:01:18.802Z,8.52
2022-10-09T22:03:46.718Z,8.51
2022-10-09T22:06:19.099Z,8.59
2022-10-09T22:08:47.850Z,8.50
2022-10-09T22:11:16.283Z,8.45
2022-10-09T22:13:44.596Z,8.36
2022-10-09T22:16:14.075Z,8.44
2022-10-09T22:18:43.658Z,8.51
2022-10-09T22:21:12.791Z,8.56
2022-10-09T22:23:40.795Z,8.59
2022-10-09T22:26:11.756Z,8.65
2022-10-09T22:28:39.627Z,8.65
2022-10-09T22:31:09.060Z,8.60
2022-10-09T22:33:37.269Z,8.51
2022-10-09T22:36:09.137Z,8.66
2022-10-09T22:38:37.547Z,8.62
2022-10-09T22:41:10.835Z,8.58
2022-10-09T22:43:39.702Z,8.55
2022-10-09T22:46:09.122Z,8.49
2022-10-09T22:48:37.093Z,8.52
2022-10-09T22:51:07.894Z,8.69
2022-10-09T22:53:36.299Z,8.58
2022-10-09T22:56:05.497Z,8.68
2022-10-09T22:58:33.667Z,8.55
2022-10-09T23:01:05.006Z,8.48
2022-10-09T23:03:33.075Z,8.38
2022-10-09T23:06:13.955Z,8.38
2022-10-09T23:08:43.381Z,8.31
2022-10-09T23:11:11.904Z,8.38
2022-10-09T23:13:39.912Z,8.35
2022-10-09T23:16:09.383Z,8.36
2022-10-09T23:18:37.682Z,8.43
2022-10-09T23:21:06.260Z,8.34
2022-10-09T23:23:35.973Z,8.35
2022-10-09T23:26:05.137Z,8.52
2022-10-09T23:28:33.080Z,8.48
2022-10-09T23:31:04.207Z,8.65
2022-10-09T23:33:32.083Z,8.70
2022-10-09T23:36:00.110Z,8.66
2022-10-09T23:38:28.125Z,8.79
2022-10-09T23:40:59.267Z,8.74
2022-10-09T23:43:27.413Z,8.78
2022-10-09T23:45:56.706Z,8.79
2022-10-09T23:48:24.724Z,8.79
2022-10-09T23:50:53.568Z,8.90
2022-10-09T23:53:22.295Z,8.90
2022-10-09T23:55:50.290Z,8.84
2022-10-09T23:58:21.068Z,8.79
